Weather reports worldwide

Advertisment
Navacerrada, Spain (8215): temperature & dewpoint: 19.03.2019 07:00:00 - 25.03.2019 07:00:00 (CET)Navacerrada, Spain (8215): wind speed: 19.03.2019 07:00:00 - 25.03.2019 07:00:00 (CET)Navacerrada, Spain (8215): wind direction: 19.03.2019 07:00:00 - 25.03.2019 07:00:00 (CET)Navacerrada, Spain (8215): visibility: 19.03.2019 07:00:00 - 25.03.2019 07:00:00 (CET)Navacerrada, Spain (8215): precipitation: 19.03.2019 07:00:00 - 25.03.2019 07:00:00 (CET)
Date & Time tt [°C] td [°C] ff [km/h] ff [kn] dd vv [km] rr [mm]
25.03.2019 07:00:00 3,6 -5,4 4 2 W 20 -
25.03.2019 06:00:00 3,3 -5,1 5 3 SSE 20 0,0
25.03.2019 05:00:00 3,1 -4,8 11 6 SSE 20 0,0
25.03.2019 04:00:00 3,6 -4,9 9 5 SSW 20 -
25.03.2019 03:00:00 3,2 -4,7 4 2 NNE 20 0,0
25.03.2019 02:00:00 3,3 -4,7 16 9 ESE 19 0,0
25.03.2019 01:00:00 3,6 -4,6 18 10 E 20 -
25.03.2019 00:00:00 4,2 -6,1 8 4 E 20 0,0
24.03.2019 23:00:00 5,2 -6,7 18 10 E 20 0,0
24.03.2019 22:00:00 5,1 -6,2 15 8 E 20 -
24.03.2019 21:00:00 5,5 -6,1 13 7 E 20 0,0
24.03.2019 20:00:00 5,8 -6,5 9 5 E 20 0,0
24.03.2019 19:00:00 7,9 -7,0 11 6 SE 20 -
24.03.2019 18:00:00 9,0 -7,7 15 8 SE 20 0,0
24.03.2019 17:00:00 10,7 -6,6 5 3 ESE 20 0,0
24.03.2019 16:00:00 11,1 -6,8 18 10 ESE 20 -
24.03.2019 15:00:00 12,7 -6,9 13 7 E 7 0,0
24.03.2019 14:00:00 12,3 -6,2 16 9 E 11 0,0
24.03.2019 13:00:00 12,0 -6,0 13 7 E 15 -
24.03.2019 12:00:00 11,1 -7,7 18 10 ESE 20 0,0
24.03.2019 11:00:00 11,0 -1,8 11 6 E 20 0,0
24.03.2019 10:00:00 9,1 -1,9 11 6 E 10 -
24.03.2019 09:00:00 6,1 -2,3 9 5 E 19 0,0
24.03.2019 08:00:00 1,8 -3,1 8 4 E 19 0,0
24.03.2019 07:00:00 1,8 -3,5 16 9 E 15 -
24.03.2019 06:00:00 1,5 -3,6 16 9 E 20 0,0
24.03.2019 05:00:00 2,0 -3,3 26 14 ESE 20 0,0
24.03.2019 04:00:00 2,1 -2,8 28 15 E 19 -
24.03.2019 03:00:00 2,4 -2,7 16 9 ESE 19 0,0
24.03.2019 02:00:00 2,8 -1,6 22 12 SSE 18 0,0
24.03.2019 01:00:00 2,9 -0,7 11 6 SSE 15 -
24.03.2019 00:00:00 3,6 -0,6 13 7 S 17 0,0
23.03.2019 23:00:00 4,1 -0,9 13 7 S 19 0,0
23.03.2019 22:00:00 4,4 -1,2 9 5 SE 19 -
23.03.2019 21:00:00 5,2 -1,3 16 9 SSE 19 0,0
23.03.2019 20:00:00 5,2 0,4 15 8 E 13 0,0
23.03.2019 19:00:00 6,5 -2,2 9 5 SE 20 -
23.03.2019 18:00:00 8,1 -2,6 11 6 SSE 19 0,0
23.03.2019 17:00:00 8,2 -2,8 18 10 E 20 0,0
23.03.2019 16:00:00 9,0 -2,9 11 6 E 20 -
23.03.2019 15:00:00 11,0 -3,5 22 12 ESE 20 0,0
23.03.2019 14:00:00 11,8 -2,8 16 9 E 20 0,0
23.03.2019 13:00:00 11,4 -2,8 15 8 E 19 -
23.03.2019 12:00:00 10,6 -2,5 16 9 ESE 19 0,0
23.03.2019 11:00:00 9,1 -2,8 24 13 ESE 20 0,0
23.03.2019 10:00:00 9,1 -2,2 11 6 E 10 -
23.03.2019 09:00:00 5,5 -3,1 9 5 E 20 0,0
23.03.2019 08:00:00 1,6 -2,7 13 7 E 19 0,0
23.03.2019 07:00:00 1,3 -2,8 11 6 ESE 15 -
23.03.2019 06:00:00 1,8 -2,5 2 1 NE 18 0,0
23.03.2019 05:00:00 1,6 -2,4 11 6 SE 18 0,0
23.03.2019 04:00:00 1,4 -1,3 21 11 SSE 14 -
23.03.2019 03:00:00 1,6 -1,5 24 13 SSE 15 0,0
23.03.2019 02:00:00 1,8 -1,6 22 12 SSE 16 0,0
23.03.2019 01:00:00 1,9 -2,1 18 10 SSE 17 -
23.03.2019 00:00:00 2,2 -2,3 22 12 SSE 18 0,0
22.03.2019 23:00:00 3,7 -4,3 21 11 SSE 2,4 0,0
22.03.2019 22:00:00 3,5 -4,9 11 6 SSE 1,1 -
22.03.2019 21:00:00 3,8 -4,9 9 5 S 1,1 0,0
22.03.2019 20:00:00 3,9 -5,6 13 7 S - 0,0
22.03.2019 19:00:00 6,2 -6,1 9 5 ESE 30 -
22.03.2019 18:00:00 8,2 -5,7 11 6 E 20 0,0
22.03.2019 17:00:00 9,3 -5,0 8 4 SE 20 0,0
22.03.2019 16:00:00 11,1 -5,0 8 4 ENE 30 -
22.03.2019 15:00:00 11,0 -5,9 8 4 ENE 20 0,0
22.03.2019 14:00:00 10,0 -6,0 8 4 NE 20 0,0
22.03.2019 13:00:00 10,9 -5,2 8 4 ENE 30 -
22.03.2019 12:00:00 8,8 -5,8 5 3 NE 20 0,0
22.03.2019 11:00:00 8,1 -5,7 13 7 E 20 0,0
22.03.2019 10:00:00 6,1 -6,8 11 6 E 30 -
22.03.2019 09:00:00 3,7 -6,0 11 6 E 20 0,0
22.03.2019 08:00:00 -0,6 -7,2 5 3 ENE 20 0,0
22.03.2019 07:00:00 -1,1 -7,9 5 3 NE 20 -
22.03.2019 06:00:00 -0,4 -7,7 8 4 NE 20 0,0
22.03.2019 05:00:00 -0,6 -7,6 8 4 NE 20 0,0
22.03.2019 04:00:00 -1,7 -7,2 9 5 ENE 20 -
22.03.2019 03:00:00 -2,2 -6,9 16 9 SSE 20 0,0
22.03.2019 02:00:00 -0,8 -7,2 15 8 SSE 20 0,0
22.03.2019 01:00:00 0,1 -7,4 11 6 SSE 20 -
22.03.2019 00:00:00 0,3 -7,9 8 4 ESE 20 0,0
21.03.2019 23:00:00 0,3 -8,2 9 5 SE 20 0,0
21.03.2019 22:00:00 0,7 -7,3 13 7 ESE 20 -
21.03.2019 21:00:00 0,6 -7,2 16 9 E 20 0,0
21.03.2019 20:00:00 1,1 -7,2 16 9 SSE 20 0,0
21.03.2019 19:00:00 2,6 -5,5 15 8 SSE 25 -
21.03.2019 18:00:00 4,7 -4,6 9 5 S 20 0,0
21.03.2019 17:00:00 5,6 -4,0 11 6 S 20 0,0
21.03.2019 16:00:00 5,8 -4,1 11 6 SW 35 -
21.03.2019 15:00:00 7,9 -3,9 8 4 S 20 0,0
21.03.2019 14:00:00 7,5 -3,4 13 7 S 20 0,0
21.03.2019 13:00:00 8,7 -2,9 5 3 SSE 40 -
21.03.2019 12:00:00 5,9 -3,2 8 4 SSW 20 0,0
21.03.2019 11:00:00 4,3 -6,6 8 4 NNW 20 0,0
21.03.2019 10:00:00 3,0 -5,4 4 2 S 35 -
21.03.2019 09:00:00 0,5 -5,3 5 3 S 20 0,0
21.03.2019 08:00:00 -1,9 -5,4 5 3 S 20 0,0
21.03.2019 07:00:00 -2,9 -4,3 11 6 SSE 15 -
21.03.2019 06:00:00 -3,1 -4,1 18 10 SSE 8 0,0
21.03.2019 05:00:00 -2,9 -4,5 22 12 S 15 0,0
21.03.2019 04:00:00 -2,0 -7,1 16 9 SSE 20 -
21.03.2019 03:00:00 -2,4 -7,9 13 7 ESE 20 0,0
21.03.2019 02:00:00 -1,9 -8,0 8 4 E 20 0,0
21.03.2019 01:00:00 -1,7 -7,6 15 8 E 20 -
21.03.2019 00:00:00 -1,2 -7,4 11 6 E 20 0,0
20.03.2019 23:00:00 -0,9 -7,7 8 4 E 20 0,0
20.03.2019 22:00:00 -0,2 -7,3 8 4 ESE 20 -
20.03.2019 21:00:00 0,3 -7,2 11 6 S 20 0,0
20.03.2019 20:00:00 1,2 -6,6 9 5 NW 20 0,0
20.03.2019 19:00:00 3,8 -5,1 4 2 WNW 25 -
20.03.2019 18:00:00 3,7 -5,3 9 5 NNW 20 0,0
20.03.2019 17:00:00 4,5 -4,5 8 4 NW 20 0,0
20.03.2019 16:00:00 4,1 -3,2 9 5 NW 40 -
20.03.2019 15:00:00 4,4 -3,9 4 2 ENE 20 0,0
20.03.2019 14:00:00 5,4 -3,9 5 3 W 20 0,0
20.03.2019 13:00:00 3,8 -4,6 4 2 W 40 -
20.03.2019 12:00:00 2,6 -4,6 9 5 W 20 0,0
20.03.2019 11:00:00 3,9 -7,0 9 5 E 20 0,0
20.03.2019 10:00:00 1,8 -6,3 9 5 E 30 -
20.03.2019 09:00:00 -0,9 -8,6 18 10 E 20 0,0
20.03.2019 08:00:00 -5,4 -6,2 5 3 ESE 20 0,0
20.03.2019 07:00:00 -5,3 -6,0 8 4 NNW 7 -
20.03.2019 06:00:00 -4,5 -6,8 13 7 ENE 20 0,0
20.03.2019 05:00:00 -5,0 -5,5 5 3 N 18 0,0
20.03.2019 04:00:00 -4,8 -5,1 8 4 NW 13 -
20.03.2019 03:00:00 -4,5 -4,6 8 4 W 0,6 0,0
20.03.2019 02:00:00 -4,3 -4,8 8 4 N 4,0 0,0
20.03.2019 01:00:00 -3,2 -5,7 13 7 ENE 20 -
20.03.2019 00:00:00 -3,3 -4,4 16 9 N 20 0,0
19.03.2019 23:00:00 -3,2 -3,7 16 9 NNW 19 0,0
19.03.2019 22:00:00 -2,7 -4,0 18 10 NNW 20 -
19.03.2019 21:00:00 -1,8 -4,0 18 10 NNW 20 0,0
19.03.2019 20:00:00 -1,0 -2,7 16 9 NNW 20 0,0
19.03.2019 19:00:00 0,4 -2,3 18 10 N 25 -
19.03.2019 18:00:00 1,9 -1,4 16 9 NNW 20 0,0
19.03.2019 17:00:00 3,4 -2,6 16 9 NNW 20 0,0
19.03.2019 16:00:00 3,2 -2,7 18 10 NNW 40 -
19.03.2019 15:00:00 2,7 -2,2 15 8 NNW 20 0,0
19.03.2019 14:00:00 3,2 -1,8 18 10 N 20 0,0
19.03.2019 13:00:00 0,4 -2,0 21 11 N 30 -
19.03.2019 12:00:00 -1,1 -2,5 18 10 N 16 0,0
19.03.2019 11:00:00 0,6 -2,3 21 11 N 20 0,0
19.03.2019 10:00:00 -2,4 -2,5 16 9 NNE 0,6 -
19.03.2019 09:00:00 -3,1 -3,2 15 8 N 0,6 0,0
19.03.2019 08:00:00 -3,7 -4,0 16 9 NNW 0,4 0,0
19.03.2019 07:00:00 -3,5 -4,5 15 8 N 10 -

tt = temperature
td = dewpoint
ff = wind speed
dd = wind direction
vv = visibility
rr = precipitation

Next stations